createdAt,value
2023-01-23T00:00:01.101Z,27.08
2023-01-23T00:01:20.080Z,27.45
2023-01-23T00:02:25.521Z,25.65
2023-01-23T00:03:34.637Z,26.70
2023-01-23T00:04:37.004Z,27.25
2023-01-23T00:05:41.499Z,26.45
2023-01-23T00:06:50.878Z,26.17
2023-01-23T00:07:56.812Z,25.05
2023-01-23T00:08:59.970Z,25.85
2023-01-23T00:10:07.719Z,23.13
2023-01-23T00:11:21.230Z,25.45
2023-01-23T00:12:23.645Z,26.55
2023-01-23T00:13:28.079Z,26.45
2023-01-23T00:14:30.263Z,26.08
2023-01-23T00:15:40.680Z,26.73
2023-01-23T00:16:47.143Z,27.25
2023-01-23T00:17:49.423Z,28.40
2023-01-23T00:18:53.074Z,27.88
2023-01-23T00:19:57.773Z,28.15
2023-01-23T00:21:05.743Z,27.55
2023-01-23T00:22:11.782Z,28.08
2023-01-23T00:23:14.843Z,29.77
2023-01-23T00:24:17.229Z,28.92
2023-01-23T00:25:19.412Z,28.80
2023-01-23T00:26:25.103Z,30.05
2023-01-23T00:27:28.832Z,32.67
2023-01-23T00:28:31.931Z,32.47
2023-01-23T00:29:34.881Z,34.17
2023-01-23T00:30:39.065Z,32.08
2023-01-23T00:31:42.281Z,31.27
2023-01-23T00:32:46.042Z,30.67
2023-01-23T00:33:48.217Z,30.58
2023-01-23T00:34:54.291Z,32.70
2023-01-23T00:36:01.938Z,31.02
2023-01-23T00:37:07.068Z,31.48
2023-01-23T00:38:09.543Z,32.42
2023-01-23T00:39:22.846Z,30.63
2023-01-23T00:40:28.202Z,29.85
2023-01-23T00:41:30.455Z,30.38
2023-01-23T00:42:34.666Z,31.85
2023-01-23T00:43:38.823Z,35.30
2023-01-23T00:44:43.329Z,34.42
2023-01-23T00:45:45.857Z,32.33
2023-01-23T00:46:49.317Z,32.85
2023-01-23T00:47:53.046Z,31.85
2023-01-23T00:48:58.209Z,30.80
2023-01-23T00:50:04.045Z,28.77
2023-01-23T00:51:06.749Z,29.75
2023-01-23T00:52:11.136Z,30.05
2023-01-23T00:53:14.399Z,32.38
2023-01-23T00:54:20.672Z,29.10
2023-01-23T00:55:23.117Z,31.05
2023-01-23T00:56:27.999Z,34.08
2023-01-23T00:57:30.713Z,33.65
2023-01-23T00:58:33.143Z,33.53
2023-01-23T00:59:38.769Z,34.45
2023-01-23T01:00:42.340Z,31.55
2023-01-23T01:01:48.951Z,34.15
2023-01-23T01:02:59.529Z,34.63
2023-01-23T01:04:05.873Z,34.33
2023-01-23T01:05:13.795Z,35.08
2023-01-23T01:06:20.469Z,34.33
2023-01-23T01:07:24.615Z,32.67
2023-01-23T01:08:30.299Z,34.72
2023-01-23T01:09:37.095Z,34.60
2023-01-23T01:10:43.215Z,36.13
2023-01-23T01:11:46.439Z,30.42
2023-01-23T01:12:52.574Z,26.00
2023-01-23T01:13:57.897Z,27.80
2023-01-23T01:15:00.335Z,28.33
2023-01-23T01:16:06.598Z,29.42
2023-01-23T01:17:14.476Z,29.48
2023-01-23T01:18:22.216Z,32.22
2023-01-23T01:19:25.869Z,30.23
2023-01-23T01:20:32.200Z,30.52
2023-01-23T01:21:36.234Z,32.30
2023-01-23T01:22:41.916Z,31.33
2023-01-23T01:23:45.544Z,32.50
2023-01-23T01:24:48.293Z,29.77
2023-01-23T01:25:52.270Z,28.52
2023-01-23T01:26:56.469Z,29.23
2023-01-23T01:27:59.919Z,32.35
2023-01-23T01:29:06.419Z,30.15
2023-01-23T01:30:12.920Z,27.88
2023-01-23T01:31:18.264Z,27.75
2023-01-23T01:32:20.890Z,29.00
2023-01-23T01:33:25.892Z,28.88
2023-01-23T01:34:34.017Z,30.30
2023-01-23T01:35:41.939Z,26.30
2023-01-23T01:36:50.380Z,28.08
2023-01-23T01:37:53.976Z,26.23
2023-01-23T01:38:56.243Z,28.20
2023-01-23T01:40:03.489Z,30.02
2023-01-23T01:41:06.914Z,26.73
2023-01-23T01:42:14.077Z,25.98
2023-01-23T01:43:22.415Z,26.27
2023-01-23T01:44:28.180Z,26.92
2023-01-23T01:46:09.881Z,26.25
2023-01-23T01:47:16.105Z,26.05
2023-01-23T01:48:21.748Z,25.95
2023-01-23T01:49:32.617Z,25.70
2023-01-23T01:50:35.702Z,27.23
2023-01-23T01:51:47.841Z,25.90
2023-01-23T01:52:52.035Z,27.15
2023-01-23T01:54:10.736Z,26.45
2023-01-23T01:55:14.937Z,25.92
2023-01-23T01:56:20.847Z,25.50
2023-01-23T01:57:28.289Z,25.15
2023-01-23T01:58:31.169Z,25.10
2023-01-23T01:59:45.232Z,25.70
2023-01-23T02:00:47.572Z,25.38
2023-01-23T02:01:54.497Z,25.73
2023-01-23T02:02:59.904Z,25.77
2023-01-23T02:04:02.613Z,24.35
2023-01-23T02:05:10.111Z,26.95
2023-01-23T02:06:14.210Z,26.08
2023-01-23T02:07:41.181Z,25.75
2023-01-23T02:09:07.449Z,26.20
2023-01-23T02:10:12.665Z,25.85
2023-01-23T02:11:20.912Z,24.60
2023-01-23T02:12:27.077Z,25.42
2023-01-23T02:13:43.273Z,26.73
2023-01-23T02:14:46.726Z,25.88
2023-01-23T02:15:50.206Z,27.73
2023-01-23T02:17:07.306Z,25.88
2023-01-23T02:18:10.650Z,25.85
2023-01-23T02:19:53.518Z,26.17
2023-01-23T02:21:14.085Z,24.92
2023-01-23T02:22:33.680Z,25.55
2023-01-23T02:24:05.159Z,24.88
2023-01-23T02:25:09.843Z,26.60
2023-01-23T02:26:17.111Z,23.73
2023-01-23T02:27:19.994Z,26.05
2023-01-23T02:28:26.145Z,23.90
2023-01-23T02:29:43.999Z,24.25
2023-01-23T02:30:51.119Z,26.52
2023-01-23T02:32:05.759Z,24.70
2023-01-23T02:33:20.900Z,24.13
2023-01-23T02:34:27.677Z,28.08
2023-01-23T02:35:36.102Z,26.67
2023-01-23T02:36:48.273Z,25.27
2023-01-23T02:37:57.672Z,25.70
2023-01-23T02:39:15.819Z,24.20
2023-01-23T02:40:22.462Z,23.88
2023-01-23T02:41:30.875Z,25.20
2023-01-23T02:42:41.891Z,24.45
2023-01-23T02:43:47.905Z,24.25
2023-01-23T02:44:56.033Z,27.65
2023-01-23T02:46:02.863Z,25.58
2023-01-23T02:47:12.522Z,25.30
2023-01-23T02:48:23.481Z,26.58
2023-01-23T02:49:26.369Z,25.47
2023-01-23T02:50:30.925Z,25.85
2023-01-23T02:51:33.368Z,25.95
2023-01-23T02:52:36.674Z,26.80
2023-01-23T02:53:39.973Z,25.95
2023-01-23T02:54:46.675Z,26.30
2023-01-23T02:55:50.635Z,27.75
2023-01-23T02:56:57.841Z,26.60
2023-01-23T02:58:20.906Z,24.95
2023-01-23T02:59:45.357Z,25.08
2023-01-23T03:00:51.053Z,23.88
2023-01-23T03:01:58.482Z,23.08
2023-01-23T03:03:05.747Z,25.63
2023-01-23T03:04:08.602Z,24.90
2023-01-23T03:05:11.209Z,24.20
2023-01-23T03:06:15.156Z,26.27
2023-01-23T03:07:17.387Z,25.17
2023-01-23T03:08:21.541Z,24.27
2023-01-23T03:09:23.647Z,24.08
2023-01-23T03:10:27.021Z,24.30
2023-01-23T03:11:35.518Z,23.90
2023-01-23T03:12:47.920Z,23.73
2023-01-23T03:13:55.025Z,24.90
2023-01-23T03:14:58.923Z,23.88
2023-01-23T03:16:07.581Z,24.42
2023-01-23T03:17:11.241Z,25.33
2023-01-23T03:18:18.201Z,23.77
2023-01-23T03:19:27.713Z,24.70
2023-01-23T03:20:41.866Z,25.35
2023-01-23T03:21:46.457Z,24.77
2023-01-23T03:22:53.010Z,24.88
2023-01-23T03:23:55.635Z,23.38
2023-01-23T03:25:05.614Z,25.42
2023-01-23T03:26:16.926Z,23.08
2023-01-23T03:27:21.413Z,24.88
2023-01-23T03:29:03.538Z,23.23
2023-01-23T03:30:21.322Z,24.23
2023-01-23T03:31:26.780Z,23.70
2023-01-23T03:32:31.039Z,21.58
2023-01-23T03:35:05.639Z,23.10
2023-01-23T03:36:12.934Z,22.25
2023-01-23T03:37:17.871Z,21.30
2023-01-23T03:38:35.346Z,21.52
2023-01-23T05:13:22.590Z,19.08
2023-01-23T05:16:51.788Z,17.85
2023-01-23T05:21:20.913Z,18.00
2023-01-23T05:27:38.487Z,20.38
2023-01-23T05:28:50.868Z,18.02
2023-01-23T05:29:57.717Z,17.98
2023-01-23T05:31:03.315Z,17.67
2023-01-23T05:33:54.035Z,17.08
2023-01-23T05:35:06.426Z,17.67
2023-01-23T05:36:23.468Z,17.63
2023-01-23T05:37:37.181Z,19.35
2023-01-23T05:38:42.521Z,19.75
2023-01-23T05:39:48.985Z,19.83
2023-01-23T05:40:56.712Z,19.23
2023-01-23T05:45:14.384Z,15.25
2023-01-23T05:46:58.025Z,17.20
2023-01-23T05:48:25.990Z,16.08
2023-01-23T05:50:45.440Z,22.02
2023-01-23T05:55:07.621Z,16.27
2023-01-23T05:56:39.445Z,14.93
2023-01-23T05:58:23.671Z,14.75
2023-01-23T05:59:41.227Z,15.05
2023-01-23T06:04:00.038Z,13.65
2023-01-23T06:10:00.912Z,13.15
2023-01-23T06:11:31.847Z,13.57
2023-01-23T06:22:14.544Z,13.65
2023-01-23T06:23:37.001Z,14.27
2023-01-23T06:24:50.063Z,16.02
2023-01-23T06:26:07.509Z,15.27
2023-01-23T06:27:54.876Z,15.20
2023-01-23T06:29:03.209Z,13.05
2023-01-23T06:30:11.673Z,15.70
2023-01-23T06:31:24.210Z,14.50
2023-01-23T06:32:36.474Z,16.52
2023-01-23T06:33:54.240Z,15.70
2023-01-23T06:35:02.887Z,15.68
2023-01-23T06:36:27.464Z,14.38
2023-01-23T06:37:50.325Z,13.82
2023-01-23T06:39:01.495Z,15.05
2023-01-23T06:40:14.523Z,15.05
2023-01-23T06:41:29.047Z,14.80
2023-01-23T06:42:37.195Z,14.52
2023-01-23T06:43:42.908Z,16.10
2023-01-23T06:44:59.953Z,14.52
2023-01-23T06:46:13.213Z,14.38
2023-01-23T06:47:17.063Z,13.15
2023-01-23T06:48:29.128Z,13.15
2023-01-23T06:49:34.448Z,14.75
2023-01-23T06:50:46.834Z,14.23
2023-01-23T06:51:49.585Z,14.40
2023-01-23T06:53:01.155Z,14.38
2023-01-23T06:54:06.137Z,14.10
2023-01-23T06:55:14.715Z,13.90
2023-01-23T06:56:20.262Z,14.00
2023-01-23T06:57:25.844Z,14.82
2023-01-23T06:58:35.204Z,13.75
2023-01-23T06:59:44.722Z,13.90
2023-01-23T07:00:50.263Z,13.73
2023-01-23T07:02:15.505Z,14.48
2023-01-23T07:03:55.781Z,14.85
2023-01-23T07:05:20.698Z,14.90
2023-01-23T07:08:21.564Z,13.95
2023-01-23T07:09:41.071Z,12.80
2023-01-23T07:11:15.090Z,12.88
2023-01-23T07:12:40.298Z,12.07
2023-01-23T07:14:05.729Z,12.80
2023-01-23T07:17:51.711Z,12.38
2023-01-23T07:19:25.834Z,14.50
2023-01-23T07:20:40.977Z,12.50
2023-01-23T07:22:09.107Z,12.88
2023-01-23T07:25:04.988Z,12.73
2023-01-23T07:26:34.111Z,16.17
2023-01-23T07:27:41.524Z,14.25
2023-01-23T07:28:57.338Z,11.90
2023-01-23T07:30:19.267Z,13.13
2023-01-23T07:31:45.823Z,12.18
2023-01-23T07:34:57.623Z,12.07
2023-01-23T07:36:13.661Z,12.48
2023-01-23T07:37:51.200Z,12.20
2023-01-23T07:39:07.259Z,11.18
2023-01-23T07:40:21.299Z,11.23
2023-01-23T07:41:37.928Z,10.88
2023-01-23T07:42:50.076Z,10.60
2023-01-23T07:43:57.194Z,11.07
2023-01-23T07:46:57.437Z,11.43
2023-01-23T07:48:22.362Z,11.75
2023-01-23T07:51:19.916Z,10.75
2023-01-23T07:52:33.197Z,11.00
2023-01-23T07:53:54.477Z,11.27
2023-01-23T07:55:19.848Z,11.90
2023-01-23T07:56:35.198Z,10.75
2023-01-23T07:58:04.540Z,10.50
2023-01-23T07:59:19.468Z,10.45
2023-01-23T08:00:38.637Z,9.95
2023-01-23T08:02:04.529Z,10.90
2023-01-23T08:03:30.232Z,12.48
2023-01-23T08:04:48.624Z,10.27
2023-01-23T08:06:08.084Z,10.68
2023-01-23T08:07:15.802Z,10.82
2023-01-23T08:08:33.889Z,11.32
2023-01-23T08:11:22.513Z,10.25
2023-01-23T08:12:46.610Z,11.77
2023-01-23T08:13:57.154Z,10.02
2023-01-23T08:15:48.760Z,12.35
2023-01-23T08:17:03.353Z,10.73
2023-01-23T08:18:09.171Z,11.82
2023-01-23T08:20:57.571Z,9.95
2023-01-23T08:22:12.372Z,11.35
2023-01-23T08:23:22.771Z,11.35
2023-01-23T08:24:34.455Z,10.50
2023-01-23T08:26:16.839Z,11.35
2023-01-23T08:27:22.547Z,10.57
2023-01-23T08:28:31.004Z,12.15
2023-01-23T08:31:22.703Z,12.57
2023-01-23T08:32:38.199Z,11.30
2023-01-23T08:33:48.055Z,11.10
2023-01-23T08:35:13.618Z,9.98
2023-01-23T08:37:32.170Z,10.35
2023-01-23T08:38:54.843Z,9.93
2023-01-23T08:40:59.162Z,10.82
2023-01-23T08:42:11.003Z,15.75
2023-01-23T08:44:13.463Z,14.73
2023-01-23T08:45:24.453Z,13.60
2023-01-23T08:48:19.708Z,13.52
2023-01-23T08:49:52.676Z,14.68
2023-01-23T08:51:18.074Z,14.50
2023-01-23T08:52:37.777Z,14.52
2023-01-23T08:54:36.946Z,13.90
2023-01-23T08:55:56.238Z,11.70
2023-01-23T08:57:14.124Z,13.02
2023-01-23T08:58:18.567Z,12.32
2023-01-23T08:59:28.005Z,11.77
2023-01-23T09:00:32.431Z,12.10
2023-01-23T09:01:35.584Z,11.90
2023-01-23T09:02:40.694Z,12.68
2023-01-23T09:03:49.629Z,12.02
2023-01-23T09:04:55.999Z,11.18
2023-01-23T09:06:08.696Z,11.55
2023-01-23T09:07:23.438Z,12.35
2023-01-23T09:08:30.037Z,13.13
2023-01-23T09:09:38.343Z,11.88
2023-01-23T09:10:46.384Z,12.32
2023-01-23T09:11:54.232Z,12.57
2023-01-23T09:13:00.148Z,13.00
2023-01-23T09:14:09.767Z,12.85
2023-01-23T09:15:19.285Z,14.13
2023-01-23T09:16:23.766Z,13.75
2023-01-23T09:17:36.864Z,14.95
2023-01-23T09:18:43.894Z,14.27
2023-01-23T09:19:48.192Z,16.58
2023-01-23T09:20:55.243Z,17.60
2023-01-23T09:22:13.255Z,16.75
2023-01-23T09:24:04.010Z,16.00
2023-01-23T09:25:09.949Z,16.63
2023-01-23T09:26:20.039Z,17.88
2023-01-23T09:29:03.632Z,17.55
2023-01-23T09:30:46.473Z,17.08
2023-01-23T09:32:27.733Z,17.77
2023-01-23T09:33:58.357Z,16.00
2023-01-23T09:35:43.831Z,16.10
2023-01-23T09:36:55.795Z,15.70
2023-01-23T09:38:15.922Z,16.60
2023-01-23T09:39:39.075Z,18.85
2023-01-23T09:41:03.281Z,16.80
2023-01-23T09:42:29.821Z,19.27
2023-01-23T09:43:33.505Z,18.70
2023-01-23T09:44:54.357Z,19.40
2023-01-23T09:46:33.620Z,17.52
2023-01-23T09:49:58.393Z,17.40
2023-01-23T09:51:46.574Z,15.98
2023-01-23T09:52:58.101Z,17.05
2023-01-23T09:54:32.871Z,16.73
2023-01-23T09:56:00.869Z,17.73
2023-01-23T09:57:34.357Z,17.02
2023-01-23T09:58:59.202Z,16.77
2023-01-23T10:00:42.258Z,16.98
2023-01-23T10:02:26.468Z,17.38
2023-01-23T10:04:09.106Z,16.45
2023-01-23T10:05:52.479Z,16.85
2023-01-23T10:07:50.172Z,18.30
2023-01-23T10:09:07.511Z,19.70
2023-01-23T10:10:32.659Z,18.17
2023-01-23T10:12:09.090Z,18.02
2023-01-23T10:13:32.716Z,17.90
2023-01-23T10:15:20.985Z,18.30
2023-01-23T10:16:54.745Z,18.20
2023-01-23T10:18:27.261Z,18.70
2023-01-23T10:19:37.077Z,18.17
2023-01-23T10:21:40.809Z,18.42
2023-01-23T10:23:48.418Z,18.83
2023-01-23T10:24:59.348Z,18.33
2023-01-23T10:26:20.140Z,19.00
2023-01-23T10:31:36.016Z,18.48
2023-01-23T10:33:26.701Z,19.30
2023-01-23T10:37:59.584Z,17.55
2023-01-23T10:39:47.605Z,18.27
2023-01-23T10:43:17.584Z,17.58
2023-01-23T10:44:36.797Z,17.60
2023-01-23T10:46:36.311Z,18.58
2023-01-23T10:47:55.203Z,18.95
2023-01-23T10:49:27.659Z,17.75
2023-01-23T10:50:50.086Z,17.83
2023-01-23T10:53:11.415Z,19.35
2023-01-23T10:56:00.207Z,17.92
2023-01-23T10:58:00.722Z,17.92
2023-01-23T10:59:49.929Z,17.83
2023-01-23T11:02:55.535Z,18.20
2023-01-23T11:06:21.170Z,19.80
2023-01-23T11:10:22.738Z,18.17
2023-01-23T11:11:35.148Z,19.08
2023-01-23T11:13:02.071Z,18.08
2023-01-23T11:14:23.306Z,17.88
2023-01-23T11:19:40.954Z,19.33
2023-01-23T11:27:07.380Z,17.98
2023-01-23T11:36:48.919Z,18.65
2023-01-23T11:38:31.858Z,19.10
2023-01-23T11:42:05.341Z,19.55
2023-01-23T11:45:50.938Z,19.58
2023-01-23T11:47:54.997Z,20.27
2023-01-23T11:49:25.466Z,19.17
2023-01-23T11:55:12.606Z,19.88
2023-01-23T12:00:17.322Z,20.67
2023-01-23T12:03:31.976Z,20.90
2023-01-23T12:05:39.813Z,20.02
2023-01-23T12:07:25.987Z,21.00
2023-01-23T12:09:11.968Z,19.92
2023-01-23T12:10:50.548Z,18.67
2023-01-23T12:12:45.665Z,19.48
2023-01-23T12:14:20.375Z,18.88
2023-01-23T12:16:04.519Z,19.25
2023-01-23T12:20:45.648Z,17.90
2023-01-23T12:22:22.175Z,19.58
2023-01-23T12:24:19.105Z,16.90
2023-01-23T12:26:17.453Z,19.25
2023-01-23T12:32:35.672Z,18.35
2023-01-23T12:37:08.094Z,19.40
2023-01-23T12:41:35.671Z,18.10
2023-01-23T12:43:10.053Z,20.67
2023-01-23T12:45:28.432Z,19.67
2023-01-23T12:46:41.480Z,20.60
2023-01-23T12:47:49.565Z,21.05
2023-01-23T12:48:59.045Z,21.83
2023-01-23T12:50:34.792Z,20.98
2023-01-23T12:51:45.366Z,20.70
2023-01-23T12:52:56.113Z,22.08
2023-01-23T12:54:13.774Z,21.33
2023-01-23T12:55:33.079Z,20.48
2023-01-23T12:57:06.742Z,21.85
2023-01-23T12:58:17.778Z,20.48
2023-01-23T13:00:03.148Z,21.55
2023-01-23T13:01:25.828Z,20.45
2023-01-23T13:02:45.706Z,21.02
2023-01-23T13:04:36.487Z,21.17
2023-01-23T13:06:02.299Z,21.35
2023-01-23T13:07:30.396Z,20.65
2023-01-23T13:09:12.432Z,21.08
2023-01-23T13:10:51.996Z,20.95
2023-01-23T13:12:22.839Z,20.73
2023-01-23T13:13:32.245Z,20.38
2023-01-23T13:14:47.727Z,21.25
2023-01-23T13:16:14.885Z,22.90
2023-01-23T13:17:37.475Z,21.35
2023-01-23T13:18:59.068Z,22.15
2023-01-23T13:20:43.058Z,23.73
2023-01-23T13:22:32.294Z,21.42
2023-01-23T13:23:39.838Z,21.92
2023-01-23T13:25:12.139Z,22.30
2023-01-23T13:26:23.239Z,21.67
2023-01-23T13:27:41.756Z,23.50
2023-01-23T13:28:57.069Z,22.98
2023-01-23T13:30:38.685Z,22.85
2023-01-23T13:31:47.620Z,21.65
2023-01-23T13:32:52.935Z,23.00
2023-01-23T13:34:06.531Z,22.60
2023-01-23T13:35:47.901Z,21.77
2023-01-23T13:37:34.435Z,22.47
2023-01-23T13:38:40.712Z,21.48
2023-01-23T13:40:21.948Z,21.88
2023-01-23T13:41:29.731Z,21.90
2023-01-23T13:42:35.995Z,23.00
2023-01-23T13:43:55.758Z,21.80
2023-01-23T13:45:31.039Z,29.35
2023-01-23T14:28:19.008Z,23.98
2023-01-23T14:30:43.579Z,25.83
2023-01-23T14:33:11.765Z,26.60
2023-01-23T14:34:19.182Z,26.52
2023-01-23T14:35:25.595Z,24.60
2023-01-23T14:36:32.702Z,27.88
2023-01-23T14:37:39.381Z,25.45
2023-01-23T14:38:48.747Z,26.55
2023-01-23T14:40:11.933Z,26.45
2023-01-23T14:41:35.036Z,27.48
2023-01-23T14:42:41.933Z,25.77
2023-01-23T14:43:47.433Z,30.33
2023-01-23T14:44:52.026Z,26.50
2023-01-23T14:46:19.905Z,26.27
2023-01-23T14:47:34.637Z,25.08
2023-01-23T14:48:45.695Z,24.90
2023-01-23T14:49:52.854Z,29.70
2023-01-23T14:51:07.691Z,26.08
2023-01-23T14:52:23.750Z,59.17
2023-01-23T14:53:26.321Z,26.23
2023-01-23T14:54:32.888Z,40.97
2023-01-23T14:55:40.014Z,29.77
2023-01-23T14:56:42.732Z,27.70
2023-01-23T14:57:45.175Z,28.77
2023-01-23T14:58:47.884Z,113.63
2023-01-23T14:59:53.243Z,28.85
2023-01-23T15:00:56.226Z,39.78
2023-01-23T15:02:10.291Z,31.02
2023-01-23T15:03:56.040Z,27.25
2023-01-23T15:05:22.650Z,24.65
2023-01-23T15:06:30.226Z,26.83
2023-01-23T15:07:32.747Z,27.55
2023-01-23T15:08:38.266Z,38.10
2023-01-23T15:09:45.942Z,27.70
2023-01-23T15:10:50.736Z,26.35
2023-01-23T15:11:53.149Z,27.90
2023-01-23T15:13:06.677Z,31.40
2023-01-23T15:14:23.337Z,26.80
2023-01-23T15:15:28.507Z,29.60
2023-01-23T15:16:35.205Z,26.60
2023-01-23T15:17:37.325Z,26.08
2023-01-23T15:18:40.222Z,35.70
2023-01-23T15:19:46.433Z,29.17
2023-01-23T15:21:05.433Z,28.02
2023-01-23T15:22:25.585Z,26.63
2023-01-23T15:23:34.079Z,26.35
2023-01-23T15:24:36.560Z,27.50
2023-01-23T15:25:40.905Z,26.35
2023-01-23T15:26:55.868Z,26.20
2023-01-23T15:27:58.400Z,25.98
2023-01-23T15:29:09.141Z,27.20
2023-01-23T15:30:35.893Z,31.02
2023-01-23T15:31:40.946Z,28.00
2023-01-23T15:32:48.164Z,26.85
2023-01-23T15:33:53.591Z,26.92
2023-01-23T15:34:57.908Z,26.10
2023-01-23T15:36:08.982Z,30.95
2023-01-23T15:37:13.801Z,26.13
2023-01-23T15:38:17.589Z,26.60
2023-01-23T15:39:28.720Z,26.48
2023-01-23T15:40:33.405Z,28.15
2023-01-23T15:41:39.712Z,27.30
2023-01-23T15:42:41.953Z,27.02
2023-01-23T15:43:47.112Z,28.20
2023-01-23T15:44:49.403Z,28.23
2023-01-23T15:45:51.643Z,27.80
2023-01-23T15:46:54.063Z,26.15
2023-01-23T15:47:58.377Z,26.52
2023-01-23T15:49:00.468Z,27.15
2023-01-23T15:50:03.336Z,25.65
2023-01-23T15:51:06.065Z,27.48
2023-01-23T15:52:31.488Z,27.23
2023-01-23T15:53:36.846Z,25.80
2023-01-23T15:54:39.257Z,26.92
2023-01-23T15:55:41.843Z,27.05
2023-01-23T15:56:50.828Z,28.38
2023-01-23T15:57:56.569Z,27.45
2023-01-23T15:59:08.102Z,26.25
2023-01-23T16:00:26.453Z,27.25
2023-01-23T16:01:29.669Z,24.77
2023-01-23T16:02:35.752Z,26.88
2023-01-23T16:03:39.669Z,26.30
2023-01-23T16:04:47.514Z,27.52
2023-01-23T16:05:50.492Z,26.52
2023-01-23T16:06:54.217Z,26.05
2023-01-23T16:08:04.434Z,26.83
2023-01-23T16:09:07.287Z,25.80
2023-01-23T16:10:20.133Z,25.27
2023-01-23T16:11:25.635Z,26.08
2023-01-23T16:12:29.935Z,26.00
2023-01-23T16:13:37.073Z,25.92
2023-01-23T16:14:40.884Z,26.98
2023-01-23T16:15:44.493Z,27.02
2023-01-23T16:17:11.482Z,26.20
2023-01-23T16:19:56.849Z,25.83
2023-01-23T16:21:08.260Z,24.33
2023-01-23T16:22:22.829Z,24.67
2023-01-23T16:23:46.675Z,25.52
2023-01-23T16:24:50.060Z,25.67
2023-01-23T16:25:54.649Z,25.67
2023-01-23T16:27:05.114Z,26.52
2023-01-23T16:28:11.920Z,26.70
2023-01-23T16:29:32.663Z,25.50
2023-01-23T16:30:35.305Z,26.05
2023-01-23T16:31:38.332Z,26.42
2023-01-23T16:32:41.376Z,26.67
2023-01-23T16:33:43.961Z,27.30
2023-01-23T16:34:56.153Z,27.10
2023-01-23T16:36:13.343Z,27.20
2023-01-23T16:37:20.261Z,25.13
2023-01-23T16:38:38.985Z,27.27
2023-01-23T16:39:53.696Z,25.33
2023-01-23T16:41:05.531Z,25.75
2023-01-23T16:42:25.622Z,26.42
2023-01-23T16:43:32.518Z,25.17
2023-01-23T16:44:36.368Z,23.90
2023-01-23T16:45:39.570Z,24.60
2023-01-23T16:46:45.923Z,25.05
2023-01-23T16:47:59.797Z,26.02
2023-01-23T16:49:03.823Z,23.95
2023-01-23T16:50:06.652Z,25.50
2023-01-23T16:51:24.535Z,27.05
2023-01-23T16:52:28.578Z,28.50
2023-01-23T16:53:34.691Z,28.35
2023-01-23T16:54:39.385Z,28.85
2023-01-23T16:55:52.702Z,24.67
2023-01-23T16:56:58.453Z,24.58
2023-01-23T16:58:02.031Z,24.73
2023-01-23T16:59:21.636Z,27.70
2023-01-23T17:00:34.059Z,26.48
2023-01-23T17:01:51.868Z,27.48
2023-01-23T17:03:00.443Z,35.45
2023-01-23T17:04:06.633Z,36.35
2023-01-23T17:05:15.780Z,31.13
2023-01-23T17:06:24.386Z,27.73
2023-01-23T17:07:31.131Z,25.98
2023-01-23T17:08:38.687Z,25.63
2023-01-23T17:09:50.485Z,26.80
2023-01-23T17:11:07.624Z,36.53
2023-01-23T17:12:28.630Z,43.50
2023-01-23T17:13:41.207Z,50.17
2023-01-23T17:14:47.970Z,31.38
2023-01-23T17:15:55.660Z,26.10
2023-01-23T17:17:08.325Z,25.35
2023-01-23T17:19:52.543Z,66.53
2023-01-23T17:20:56.422Z,31.08
2023-01-23T17:22:08.796Z,25.92
2023-01-23T17:23:25.447Z,43.67
2023-01-23T17:24:30.547Z,26.00
2023-01-23T17:25:47.868Z,25.15
2023-01-23T17:26:57.184Z,24.23
2023-01-23T17:28:12.868Z,25.00
2023-01-23T17:29:16.740Z,24.75
2023-01-23T17:30:31.421Z,25.58
2023-01-23T17:31:35.124Z,25.05
2023-01-23T17:32:49.327Z,24.67
2023-01-23T17:36:21.331Z,23.70
2023-01-23T17:38:10.317Z,22.25
2023-01-23T17:39:59.609Z,23.27
2023-01-23T17:41:11.465Z,22.25
2023-01-23T17:42:28.940Z,23.48
2023-01-23T17:43:35.104Z,24.27
2023-01-23T17:44:44.146Z,23.33
2023-01-23T17:45:51.004Z,23.95
2023-01-23T17:46:55.099Z,25.40
2023-01-23T17:47:57.873Z,23.58
2023-01-23T17:49:03.783Z,25.42
2023-01-23T17:50:37.451Z,25.70
2023-01-23T17:51:41.307Z,23.70
2023-01-23T17:52:46.606Z,23.95
2023-01-23T17:53:54.394Z,25.67
2023-01-23T17:55:02.723Z,25.33
2023-01-23T17:56:09.205Z,27.00
2023-01-23T17:57:15.778Z,24.67
2023-01-23T17:58:22.454Z,20.67
2023-01-23T17:59:36.719Z,20.70
2023-01-23T18:00:48.673Z,20.40
2023-01-23T18:01:53.709Z,21.42
2023-01-23T18:03:02.814Z,20.90
2023-01-23T18:04:19.228Z,20.63
2023-01-23T18:05:27.186Z,18.30
2023-01-23T18:06:40.602Z,16.73
2023-01-23T18:08:19.817Z,16.88
2023-01-23T18:09:24.778Z,17.45
2023-01-23T18:10:30.171Z,17.50
2023-01-23T18:11:40.974Z,17.55
2023-01-23T18:13:23.896Z,17.35
2023-01-23T18:14:39.583Z,17.75
2023-01-23T18:16:22.819Z,16.10
2023-01-23T18:17:45.636Z,15.27
2023-01-23T18:18:59.252Z,16.13
2023-01-23T18:20:23.702Z,16.63
2023-01-23T18:21:33.102Z,16.55
2023-01-23T18:22:41.299Z,15.77
2023-01-23T18:23:47.769Z,14.82
2023-01-23T18:25:07.248Z,16.50
2023-01-23T18:27:57.321Z,16.27
2023-01-23T18:29:23.737Z,17.30
2023-01-23T18:31:18.465Z,17.52
2023-01-23T18:32:35.685Z,16.35
2023-01-23T18:33:52.483Z,17.65
2023-01-23T18:35:24.069Z,18.25
2023-01-23T18:36:54.132Z,18.20
2023-01-23T18:38:02.550Z,17.80
2023-01-23T18:39:33.195Z,18.52
2023-01-23T18:41:01.444Z,17.88
2023-01-23T18:42:29.356Z,19.38
2023-01-23T18:43:46.518Z,19.25
2023-01-23T18:45:20.806Z,18.33
2023-01-23T18:46:33.117Z,19.80
2023-01-23T18:47:35.585Z,19.95
2023-01-23T18:48:42.203Z,19.70
2023-01-23T18:49:44.668Z,19.63
2023-01-23T18:51:30.273Z,19.33
2023-01-23T18:53:17.441Z,18.67
2023-01-23T18:54:35.852Z,20.17
2023-01-23T18:56:03.711Z,17.45
2023-01-23T18:57:51.874Z,18.88
2023-01-23T18:59:39.435Z,18.33
2023-01-23T19:00:58.365Z,17.58
2023-01-23T19:02:03.723Z,18.67
2023-01-23T19:03:33.531Z,17.67
2023-01-23T19:04:48.452Z,17.75
2023-01-23T19:05:50.876Z,17.70
2023-01-23T19:06:53.374Z,17.02
2023-01-23T19:08:04.341Z,18.70
2023-01-23T19:09:06.686Z,17.65
2023-01-23T19:10:20.565Z,17.75
2023-01-23T19:12:20.623Z,16.50
2023-01-23T19:13:45.153Z,17.13
2023-01-23T19:15:10.306Z,17.77
2023-01-23T19:16:55.105Z,16.13
2023-01-23T19:18:00.042Z,16.55
2023-01-23T19:19:28.397Z,17.50
2023-01-23T19:20:37.681Z,17.90
2023-01-23T19:21:40.800Z,17.33
2023-01-23T19:22:58.447Z,17.83
2023-01-23T19:24:01.716Z,17.88
2023-01-23T19:25:04.171Z,17.45
2023-01-23T19:26:12.612Z,17.60
2023-01-23T19:27:23.506Z,16.98
2023-01-23T19:28:25.835Z,17.65
2023-01-23T19:29:49.529Z,17.45
2023-01-23T19:31:00.162Z,17.42
2023-01-23T19:32:05.521Z,16.60
2023-01-23T19:33:14.985Z,17.30
2023-01-23T19:34:18.924Z,17.33
2023-01-23T19:35:22.476Z,16.48
2023-01-23T19:36:25.925Z,16.65
2023-01-23T19:37:27.961Z,17.40
2023-01-23T19:38:31.587Z,16.85
2023-01-23T19:39:35.065Z,16.30
2023-01-23T19:40:38.423Z,17.05
2023-01-23T19:41:48.267Z,17.33
2023-01-23T19:43:12.570Z,18.25
2023-01-23T19:44:24.419Z,17.65
2023-01-23T19:45:26.777Z,16.92
2023-01-23T19:46:33.635Z,18.05
2023-01-23T19:47:35.858Z,17.35
2023-01-23T19:48:40.212Z,17.63
2023-01-23T19:49:42.651Z,16.95
2023-01-23T19:51:26.780Z,14.60
2023-01-23T19:52:30.846Z,14.45
2023-01-23T19:53:32.805Z,15.18
2023-01-23T19:54:34.864Z,15.73
2023-01-23T19:55:40.231Z,16.00
2023-01-23T19:56:42.621Z,15.52
2023-01-23T19:57:47.098Z,15.43
2023-01-23T19:58:51.851Z,15.38
2023-01-23T19:59:54.779Z,15.63
2023-01-23T20:00:57.035Z,15.82
2023-01-23T20:01:59.257Z,20.27
2023-01-23T20:03:18.620Z,16.17
2023-01-23T20:04:25.955Z,21.65
2023-01-23T20:05:35.841Z,15.20
2023-01-23T20:06:42.970Z,14.85
2023-01-23T20:07:45.108Z,15.48
2023-01-23T20:08:51.597Z,15.55
2023-01-23T20:09:54.535Z,16.20
2023-01-23T20:11:00.007Z,16.73
2023-01-23T20:12:02.119Z,16.25
2023-01-23T20:13:08.911Z,15.52
2023-01-23T20:14:12.457Z,20.05
2023-01-23T20:15:24.813Z,17.83
2023-01-23T20:16:26.985Z,15.82
2023-01-23T20:17:52.840Z,34.15
2023-01-23T20:18:56.065Z,37.38
2023-01-23T20:19:58.424Z,20.92
2023-01-23T20:21:00.466Z,18.40
2023-01-23T20:22:02.709Z,16.77
2023-01-23T20:23:04.845Z,15.95
2023-01-23T20:24:08.246Z,16.55
2023-01-23T20:25:16.006Z,16.25
2023-01-23T20:26:20.406Z,16.63
2023-01-23T20:27:24.821Z,18.10
2023-01-23T20:28:32.380Z,16.25
2023-01-23T20:29:37.044Z,16.77